Time,TemperatureF,DewpointF,PressureIn,WindDirection,WindDirectionDegrees,WindSpeedMPH,WindSpeedGustMPH,Humidity,HourlyPrecipIn,Conditions,Clouds,dailyrainin,SoftwareType,DateUTC
2015-07-29 00:03:00,82.7,77.3,29.96,WSW,252,2.0,6.0,84,0.28,,,0.28,Weather View 32 v70,2015-07-29 04:03:00,
2015-07-29 00:08:00,82.6,77.2,29.95,WSW,252,0.0,6.0,84,0.28,,,0.28,Weather View 32 v70,2015-07-29 04:08:00,
2015-07-29 00:13:00,82.6,77.2,29.95,WSW,252,0.0,6.0,84,0.28,,,0.28,Weather View 32 v70,2015-07-29 04:13:00,
2015-07-29 00:18:00,82.6,77.2,29.95,WSW,252,0.0,6.0,84,0.28,,,0.28,Weather View 32 v70,2015-07-29 04:18:00,
2015-07-29 00:23:00,82.6,77.6,29.95,WSW,252,0.0,6.0,85,0.28,,,0.28,Weather View 32 v70,2015-07-29 04:23:00,
2015-07-29 00:28:00,82.5,77.5,29.95,WSW,252,0.0,6.0,85,0.28,,,0.28,Weather View 32 v70,2015-07-29 04:28:00,
2015-07-29 00:30:00,82.5,77.5,29.95,WSW,252,0.0,6.0,85,0.28,,,0.28,Weather View 32 v70,2015-07-29 04:30:00,
2015-07-29 00:33:00,82.5,77.5,29.95,WSW,252,0.0,5.0,85,0.28,,,0.28,Weather View 32 v70,2015-07-29 04:33:00,
2015-07-29 00:38:00,82.5,77.5,29.95,WSW,252,0.0,5.0,85,0.28,,,0.28,Weather View 32 v70,2015-07-29 04:38:00,
2015-07-29 00:43:00,82.5,77.5,29.95,WSW,252,3.0,5.0,85,0.28,,,0.28,Weather View 32 v70,2015-07-29 04:43:00,
2015-07-29 00:48:00,82.5,77.5,29.95,WSW,252,2.0,5.0,85,0.28,,,0.28,Weather View 32 v70,2015-07-29 04:48:00,
2015-07-29 00:53:00,82.4,77.1,29.95,WSW,254,3.0,5.0,84,0.28,,,0.28,Weather View 32 v70,2015-07-29 04:53:00,
2015-07-29 00:58:00,82.4,77.1,29.95,WSW,254,0.0,5.0,84,0.00,,,0.00,Weather View 32 v70,2015-07-29 04:58:00,
2015-07-29 01:03:00,82.3,77.0,29.96,WSW,254,0.0,5.0,84,-0.28,,,0.00,Weather View 32 v70,2015-07-29 05:03:00,
2015-07-29 01:08:00,82.2,76.9,29.96,WSW,254,0.0,5.0,84,-0.28,,,0.00,Weather View 32 v70,2015-07-29 05:08:00,
2015-07-29 01:13:00,82.2,76.9,29.96,WSW,254,0.0,5.0,84,-0.28,,,0.00,Weather View 32 v70,2015-07-29 05:13:00,
2015-07-29 01:18:00,82.1,76.8,29.95,WSW,254,0.0,5.0,84,-0.28,,,0.00,Weather View 32 v70,2015-07-29 05:18:00,
2015-07-29 01:23:00,81.9,76.6,29.95,WSW,254,2.0,5.0,84,-0.28,,,0.00,Weather View 32 v70,2015-07-29 05:23:00,
2015-07-29 01:29:00,81.9,76.6,29.95,North,-9999,0.0,6.0,84,-0.28,,,0.00,Weather View 32 v70,2015-07-29 05:29:00,
2015-07-29 01:30:00,81.9,76.6,29.95,North,-9999,0.0,6.0,84,-0.28,,,0.00,Weather View 32 v70,2015-07-29 05:30:00,
2015-07-29 01:34:00,81.9,76.6,29.95,WSW,250,0.0,6.0,84,-0.28,,,0.00,Weather View 32 v70,2015-07-29 05:34:00,
2015-07-29 01:39:00,81.9,76.6,29.95,WSW,252,3.0,6.0,84,-0.28,,,0.00,Weather View 32 v70,2015-07-29 05:39:00,
2015-07-29 01:44:00,81.9,76.6,29.95,WSW,252,0.0,6.0,84,-0.28,,,0.00,Weather View 32 v70,2015-07-29 05:44:00,
2015-07-29 01:49:00,81.9,76.6,29.95,WSW,252,0.0,6.0,84,-0.28,,,0.00,Weather View 32 v70,2015-07-29 05:49:00,
2015-07-29 01:54:00,81.8,76.5,29.94,WSW,252,0.0,6.0,84,-0.28,,,0.00,Weather View 32 v70,2015-07-29 05:54:00,
2015-07-29 01:59:00,81.8,76.5,29.94,WSW,252,0.0,6.0,84,0.00,,,0.00,Weather View 32 v70,2015-07-29 05:59:00,
2015-07-29 02:04:00,81.8,76.5,29.94,WSW,252,0.0,6.0,84,0.00,,,0.00,Weather View 32 v70,2015-07-29 06:04:00,
2015-07-29 02:09:00,81.7,76.7,29.95,WSW,252,0.0,6.0,85,0.00,,,0.00,Weather View 32 v70,2015-07-29 06:09:00,
2015-07-29 02:14:00,81.7,76.7,29.94,WSW,252,0.0,6.0,85,0.00,,,0.00,Weather View 32 v70,2015-07-29 06:14:00,
2015-07-29 02:19:00,81.6,76.6,29.94,WSW,252,0.0,6.0,85,0.00,,,0.00,Weather View 32 v70,2015-07-29 06:19:00,
2015-07-29 02:24:00,81.6,76.6,29.93,WSW,252,2.0,6.0,85,0.00,,,0.00,Weather View 32 v70,2015-07-29 06:24:00,
2015-07-29 02:29:00,81.6,76.6,29.93,WSW,252,0.0,6.0,85,0.00,,,0.00,Weather View 32 v70,2015-07-29 06:29:00,
2015-07-29 02:34:00,81.6,76.6,29.93,WSW,252,0.0,6.0,85,0.00,,,0.00,Weather View 32 v70,2015-07-29 06:34:00,
2015-07-29 02:39:00,81.5,76.5,29.93,WSW,252,0.0,6.0,85,0.00,,,0.00,Weather View 32 v70,2015-07-29 06:39:00,
2015-07-29 02:44:00,81.4,76.4,29.93,WSW,252,0.0,6.0,85,0.00,,,0.00,Weather View 32 v70,2015-07-29 06:44:00,
2015-07-29 02:49:00,81.4,76.4,29.93,WSW,252,0.0,6.0,85,0.00,,,0.00,Weather View 32 v70,2015-07-29 06:49:00,
2015-07-29 02:59:00,81.4,76.4,29.93,WSW,252,0.0,6.0,85,0.00,,,0.00,Weather View 32 v70,2015-07-29 06:59:00,
2015-07-29 03:04:00,81.4,76.4,29.92,WSW,252,0.0,6.0,85,0.00,,,0.00,Weather View 32 v70,2015-07-29 07:04:00,
2015-07-29 03:09:00,81.3,76.3,29.92,WSW,252,0.0,6.0,85,0.00,,,0.00,Weather View 32 v70,2015-07-29 07:09:00,
2015-07-29 03:14:00,81.2,76.2,29.92,WSW,252,0.0,6.0,85,0.00,,,0.00,Weather View 32 v70,2015-07-29 07:14:00,
2015-07-29 03:19:00,81.2,76.2,29.92,WSW,252,0.0,6.0,85,0.00,,,0.00,Weather View 32 v70,2015-07-29 07:19:00,
2015-07-29 03:24:00,81.2,76.2,29.93,WSW,252,2.0,4.0,85,0.00,,,0.00,Weather View 32 v70,2015-07-29 07:24:00,
2015-07-29 03:29:00,81.3,76.3,29.92,WSW,252,0.0,3.0,85,0.00,,,0.00,Weather View 32 v70,2015-07-29 07:29:00,
2015-07-29 03:30:00,81.3,76.7,29.92,WSW,252,0.0,3.0,86,0.00,,,0.00,Weather View 32 v70,2015-07-29 07:30:00,
2015-07-29 03:34:00,81.4,76.8,29.93,WSW,252,0.0,3.0,86,0.00,,,0.00,Weather View 32 v70,2015-07-29 07:34:00,
2015-07-29 03:49:00,81.8,77.2,29.93,West,265,3.0,8.0,86,0.00,,,0.00,Weather View 32 v70,2015-07-29 07:49:00,
2015-07-29 03:54:00,81.9,77.3,29.93,West,263,3.0,8.0,86,0.00,,,0.00,Weather View 32 v70,2015-07-29 07:54:00,
2015-07-29 03:59:00,81.9,77.3,29.93,West,265,0.0,8.0,86,0.00,,,0.00,Weather View 32 v70,2015-07-29 07:59:00,
2015-07-29 04:04:00,82.0,77.4,29.93,West,265,0.0,8.0,86,0.00,,,0.00,Weather View 32 v70,2015-07-29 08:04:00,
2015-07-29 04:10:00,82.0,77.4,29.93,West,265,0.0,8.0,86,0.00,,,0.00,Weather View 32 v70,2015-07-29 08:10:00,
2015-07-29 04:15:00,82.0,77.4,29.92,West,265,0.0,8.0,86,0.00,,,0.00,Weather View 32 v70,2015-07-29 08:15:00,
2015-07-29 04:20:00,82.0,77.4,29.92,West,265,0.0,8.0,86,0.00,,,0.00,Weather View 32 v70,2015-07-29 08:20:00,
2015-07-29 04:25:00,82.0,77.4,29.92,West,265,0.0,8.0,86,0.00,,,0.00,Weather View 32 v70,2015-07-29 08:25:00,
2015-07-29 04:30:00,81.9,77.3,29.92,West,265,0.0,8.0,86,0.00,,,0.00,Weather View 32 v70,2015-07-29 08:30:00,
2015-07-29 04:35:00,82.0,77.4,29.92,West,265,0.0,8.0,86,0.00,,,0.00,Weather View 32 v70,2015-07-29 08:35:00,
2015-07-29 04:40:00,82.0,77.4,29.92,West,265,0.0,8.0,86,0.00,,,0.00,Weather View 32 v70,2015-07-29 08:40:00,
2015-07-29 04:45:00,81.9,77.3,29.92,West,265,0.0,8.0,86,0.00,,,0.00,Weather View 32 v70,2015-07-29 08:45:00,
2015-07-29 04:50:00,81.9,77.3,29.92,West,265,0.0,6.0,86,0.00,,,0.00,Weather View 32 v70,2015-07-29 08:50:00,
2015-07-29 05:00:00,81.9,77.3,29.92,West,265,0.0,6.0,86,0.00,,,0.00,Weather View 32 v70,2015-07-29 09:00:00,
2015-07-29 05:05:00,81.9,77.3,29.92,West,265,1.0,6.0,86,0.00,,,0.00,Weather View 32 v70,2015-07-29 09:05:00,
2015-07-29 05:10:00,82.0,77.4,29.92,West,265,0.0,6.0,86,0.00,,,0.00,Weather View 32 v70,2015-07-29 09:10:00,
2015-07-29 05:15:00,82.0,77.4,29.92,West,265,0.0,6.0,86,0.00,,,0.00,Weather View 32 v70,2015-07-29 09:15:00,
2015-07-29 05:20:00,82.0,77.4,29.92,West,265,0.0,6.0,86,0.00,,,0.00,Weather View 32 v70,2015-07-29 09:20:00,
2015-07-29 05:25:00,81.9,77.3,29.92,West,265,0.0,6.0,86,0.00,,,0.00,Weather View 32 v70,2015-07-29 09:25:00,
2015-07-29 05:30:00,81.9,77.3,29.93,West,265,0.0,6.0,86,0.00,,,0.00,Weather View 32 v70,2015-07-29 09:30:00,
2015-07-29 05:35:00,81.8,77.2,29.93,West,265,0.0,5.0,86,0.00,,,0.00,Weather View 32 v70,2015-07-29 09:35:00,
2015-07-29 05:40:00,81.7,77.1,29.93,West,265,0.0,5.0,86,0.00,,,0.00,Weather View 32 v70,2015-07-29 09:40:00,
2015-07-29 05:45:00,81.6,77.0,29.92,West,265,0.0,5.0,86,0.00,,,0.00,Weather View 32 v70,2015-07-29 09:45:00,
2015-07-29 05:50:00,81.5,77.2,29.92,West,265,0.0,5.0,87,0.00,,,0.00,Weather View 32 v70,2015-07-29 09:50:00,
2015-07-29 05:55:00,81.2,76.6,29.93,North,355,0.0,5.0,86,0.00,,,0.01,Weather View 32 v70,2015-07-29 09:55:00,
2015-07-29 06:00:00,80.6,76.4,29.93,North,360,0.0,5.0,87,0.02,,,0.02,Weather View 32 v70,2015-07-29 10:00:00,
2015-07-29 06:05:00,80.4,76.2,29.93,North,360,0.0,5.0,87,0.02,,,0.02,Weather View 32 v70,2015-07-29 10:05:00,
2015-07-29 06:10:00,80.2,76.0,29.93,North,5,0.0,5.0,87,0.02,,,0.02,Weather View 32 v70,2015-07-29 10:10:00,
2015-07-29 06:15:00,79.2,74.6,29.93,ESE,116,3.0,8.0,86,0.02,,,0.02,Weather View 32 v70,2015-07-29 10:15:00,
2015-07-29 06:20:00,78.4,73.5,29.92,SE,124,0.0,8.0,85,0.02,,,0.02,Weather View 32 v70,2015-07-29 10:20:00,
2015-07-29 06:25:00,78.0,73.1,29.92,SE,125,0.0,8.0,85,0.02,,,0.02,Weather View 32 v70,2015-07-29 10:25:00,
2015-07-29 06:30:00,77.8,73.3,29.92,SE,125,0.0,8.0,86,0.02,,,0.02,Weather View 32 v70,2015-07-29 10:30:00,
2015-07-29 06:35:00,77.7,73.2,29.92,SE,125,0.0,8.0,86,0.02,,,0.02,Weather View 32 v70,2015-07-29 10:35:00,
2015-07-29 06:40:00,77.7,73.5,29.92,SE,125,0.0,8.0,87,0.02,,,0.02,Weather View 32 v70,2015-07-29 10:40:00,
2015-07-29 06:45:00,77.7,73.5,29.93,SE,125,0.0,8.0,87,0.02,,,0.02,Weather View 32 v70,2015-07-29 10:45:00,
2015-07-29 06:50:00,77.7,73.8,29.93,SE,125,0.0,8.0,88,0.02,,,0.02,Weather View 32 v70,2015-07-29 10:50:00,
2015-07-29 06:55:00,77.8,73.9,29.93,SE,125,0.0,8.0,88,0.02,,,0.02,Weather View 32 v70,2015-07-29 10:55:00,
2015-07-29 07:01:00,77.8,73.9,29.92,SE,125,0.0,8.0,88,0.00,,,0.02,Weather View 32 v70,2015-07-29 11:01:00,
2015-07-29 07:11:00,77.6,73.7,29.93,SE,125,0.0,8.0,88,0.00,,,0.02,Weather View 32 v70,2015-07-29 11:11:00,
2015-07-29 07:16:00,77.6,73.7,29.93,SE,125,0.0,8.0,88,0.00,,,0.02,Weather View 32 v70,2015-07-29 11:16:00,
2015-07-29 07:21:00,77.6,74.1,29.93,SE,125,0.0,3.0,89,0.00,,,0.02,Weather View 32 v70,2015-07-29 11:21:00,
2015-07-29 07:26:00,77.7,74.2,29.93,SE,125,0.0,1.0,89,0.00,,,0.02,Weather View 32 v70,2015-07-29 11:26:00,
2015-07-29 07:30:00,77.7,74.2,29.93,SE,125,0.0,0.0,89,0.00,,,0.02,Weather View 32 v70,2015-07-29 11:30:00,
2015-07-29 07:31:00,77.8,74.3,29.94,SE,125,0.0,0.0,89,0.00,,,0.02,Weather View 32 v70,2015-07-29 11:31:00,
2015-07-29 07:36:00,77.9,74.4,29.94,SE,125,0.0,0.0,89,0.00,,,0.02,Weather View 32 v70,2015-07-29 11:36:00,
2015-07-29 07:41:00,78.1,74.6,29.94,SE,125,0.0,0.0,89,0.00,,,0.02,Weather View 32 v70,2015-07-29 11:41:00,
2015-07-29 07:46:00,78.3,74.8,29.95,SE,125,0.0,0.0,89,0.00,,,0.02,Weather View 32 v70,2015-07-29 11:46:00,
2015-07-29 07:51:00,78.5,75.3,29.95,SE,125,0.0,0.0,90,0.00,,,0.02,Weather View 32 v70,2015-07-29 11:51:00,
2015-07-29 07:56:00,78.9,75.7,29.95,SE,125,0.0,0.0,90,0.00,,,0.02,Weather View 32 v70,2015-07-29 11:56:00,
2015-07-29 08:01:00,79.2,76.0,29.96,SE,125,0.0,0.0,90,0.00,,,0.02,Weather View 32 v70,2015-07-29 12:01:00,
2015-07-29 08:06:00,79.6,76.4,29.95,SE,125,0.0,0.0,90,0.00,,,0.02,Weather View 32 v70,2015-07-29 12:06:00,
2015-07-29 08:11:00,79.9,76.7,29.96,SE,125,0.0,0.0,90,0.00,,,0.02,Weather View 32 v70,2015-07-29 12:11:00,
2015-07-29 08:16:00,80.1,76.9,29.96,SE,125,0.0,0.0,90,0.00,,,0.02,Weather View 32 v70,2015-07-29 12:16:00,
2015-07-29 08:21:00,80.4,77.2,29.97,SE,125,0.0,0.0,90,0.00,,,0.02,Weather View 32 v70,2015-07-29 12:21:00,
2015-07-29 08:26:00,80.6,77.4,29.97,SE,125,0.0,0.0,90,0.00,,,0.02,Weather View 32 v70,2015-07-29 12:26:00,
2015-07-29 08:30:00,80.7,77.5,29.97,SE,125,0.0,0.0,90,0.00,,,0.02,Weather View 32 v70,2015-07-29 12:30:00,
2015-07-29 08:31:00,80.8,77.6,29.97,SE,125,0.0,0.0,90,0.00,,,0.02,Weather View 32 v70,2015-07-29 12:31:00,
2015-07-29 08:36:00,81.0,77.8,29.97,SE,125,0.0,0.0,90,0.00,,,0.02,Weather View 32 v70,2015-07-29 12:36:00,
2015-07-29 08:41:00,81.2,78.0,29.97,SE,125,0.0,0.0,90,0.00,,,0.02,Weather View 32 v70,2015-07-29 12:41:00,
2015-07-29 08:46:00,81.4,78.2,29.97,SE,125,0.0,0.0,90,0.00,,,0.02,Weather View 32 v70,2015-07-29 12:46:00,
2015-07-29 08:51:00,81.4,77.8,29.97,SE,125,0.0,1.0,89,0.00,,,0.02,Weather View 32 v70,2015-07-29 12:51:00,
2015-07-29 08:56:00,81.7,78.1,29.97,SE,125,0.0,1.0,89,0.00,,,0.02,Weather View 32 v70,2015-07-29 12:56:00,
2015-07-29 09:01:00,81.9,78.3,29.97,SE,125,0.0,1.0,89,0.00,,,0.02,Weather View 32 v70,2015-07-29 13:01:00,
2015-07-29 09:06:00,81.6,77.7,29.97,SSW,208,4.0,6.0,88,0.00,,,0.02,Weather View 32 v70,2015-07-29 13:06:00,
2015-07-29 09:11:00,80.9,76.6,29.98,SSW,207,0.0,6.0,87,0.00,,,0.02,Weather View 32 v70,2015-07-29 13:11:00,
2015-07-29 09:16:00,80.7,76.4,29.98,SSW,208,0.0,6.0,87,0.00,,,0.02,Weather View 32 v70,2015-07-29 13:16:00,
2015-07-29 09:21:00,80.7,76.4,29.98,SSW,209,0.0,6.0,87,0.00,,,0.02,Weather View 32 v70,2015-07-29 13:21:00,
2015-07-29 09:26:00,80.8,76.5,29.98,SSW,202,5.0,6.0,87,0.00,,,0.02,Weather View 32 v70,2015-07-29 13:26:00,
2015-07-29 09:30:00,80.9,76.3,29.98,SSW,208,0.0,6.0,86,0.00,,,0.02,Weather View 32 v70,2015-07-29 13:30:00,
2015-07-29 09:31:00,80.9,76.3,29.98,SSW,205,0.0,6.0,86,0.00,,,0.02,Weather View 32 v70,2015-07-29 13:31:00,
2015-07-29 09:37:00,80.9,76.3,29.98,SW,214,0.0,6.0,86,0.00,,,0.02,Weather View 32 v70,2015-07-29 13:37:00,
2015-07-29 09:42:00,81.1,76.5,29.98,SW,214,0.0,6.0,86,0.00,,,0.02,Weather View 32 v70,2015-07-29 13:42:00,
2015-07-29 09:47:00,81.5,76.5,29.98,SSW,212,0.0,6.0,85,0.00,,,0.02,Weather View 32 v70,2015-07-29 13:47:00,
2015-07-29 09:57:00,82.0,76.3,29.98,SW,217,3.0,6.0,83,0.00,,,0.02,Weather View 32 v70,2015-07-29 13:57:00,
2015-07-29 10:02:00,82.4,76.7,29.99,SW,216,0.0,7.0,83,0.00,,,0.02,Weather View 32 v70,2015-07-29 14:02:00,
2015-07-29 10:07:00,82.8,76.7,29.99,SSW,202,0.0,7.0,82,0.00,,,0.02,Weather View 32 v70,2015-07-29 14:07:00,
2015-07-29 10:12:00,83.1,76.6,30.00,SSW,208,0.0,7.0,81,0.00,,,0.02,Weather View 32 v70,2015-07-29 14:12:00,
2015-07-29 10:22:00,83.0,76.5,30.00,West,266,3.0,8.0,81,0.00,,,0.02,Weather View 32 v70,2015-07-29 14:22:00,
2015-07-29 10:27:00,82.5,76.4,30.00,SW,236,0.0,8.0,82,0.00,,,0.02,Weather View 32 v70,2015-07-29 14:27:00,
2015-07-29 10:30:00,82.3,76.2,30.00,WSW,246,4.0,8.0,82,0.00,,,0.02,Weather View 32 v70,2015-07-29 14:30:00,
2015-07-29 10:32:00,82.2,76.5,30.00,WSW,256,3.0,8.0,83,0.00,,,0.02,Weather View 32 v70,2015-07-29 14:32:00,
2015-07-29 10:37:00,81.8,76.1,30.00,West,279,0.0,8.0,83,0.00,,,0.02,Weather View 32 v70,2015-07-29 14:37:00,
2015-07-29 10:42:00,81.6,75.9,30.00,West,259,5.0,13.0,83,0.00,,,0.02,Weather View 32 v70,2015-07-29 14:42:00,
2015-07-29 10:47:00,81.7,76.0,30.00,WSW,256,3.0,13.0,83,0.00,,,0.02,Weather View 32 v70,2015-07-29 14:47:00,
2015-07-29 10:52:00,82.3,76.6,30.00,SSW,212,1.0,13.0,83,0.00,,,0.02,Weather View 32 v70,2015-07-29 14:52:00,
2015-07-29 10:57:00,83.1,77.0,30.00,SW,225,0.0,13.0,82,0.00,,,0.02,Weather View 32 v70,2015-07-29 14:57:00,
2015-07-29 11:02:00,83.4,76.9,30.00,West,278,0.0,13.0,81,0.00,,,0.02,Weather View 32 v70,2015-07-29 15:02:00,
2015-07-29 11:07:00,83.6,77.1,30.00,West,278,0.0,13.0,81,0.00,,,0.02,Weather View 32 v70,2015-07-29 15:07:00,
2015-07-29 11:12:00,83.6,76.7,29.99,West,274,0.0,13.0,80,0.00,,,0.02,Weather View 32 v70,2015-07-29 15:12:00,
2015-07-29 11:22:00,84.8,77.5,29.99,West,271,0.0,13.0,79,0.00,,,0.02,Weather View 32 v70,2015-07-29 15:22:00,
2015-07-29 11:27:00,85.7,78.0,29.99,West,271,0.0,13.0,78,0.00,,,0.02,Weather View 32 v70,2015-07-29 15:27:00,
2015-07-29 11:30:00,86.4,78.3,29.99,West,269,0.0,13.0,77,0.00,,,0.02,Weather View 32 v70,2015-07-29 15:30:00,
2015-07-29 11:32:00,86.9,78.4,29.99,West,269,0.0,13.0,76,0.00,,,0.02,Weather View 32 v70,2015-07-29 15:32:00,
2015-07-29 11:37:00,87.2,78.3,30.00,SW,226,0.0,13.0,75,0.00,,,0.02,Weather View 32 v70,2015-07-29 15:37:00,
2015-07-29 11:42:00,86.9,78.0,30.00,SW,221,1.0,9.0,75,0.00,,,0.02,Weather View 32 v70,2015-07-29 15:42:00,
2015-07-29 11:47:00,86.7,78.2,30.00,SW,220,0.0,6.0,76,0.00,,,0.02,Weather View 32 v70,2015-07-29 15:47:00,
2015-07-29 11:52:00,86.6,77.7,30.00,SW,220,0.0,6.0,75,0.00,,,0.02,Weather View 32 v70,2015-07-29 15:52:00,
2015-07-29 11:57:00,86.5,78.0,30.00,SW,220,0.0,6.0,76,0.00,,,0.02,Weather View 32 v70,2015-07-29 15:57:00,
2015-07-29 12:02:00,87.0,78.5,30.00,SW,220,0.0,4.0,76,0.00,,,0.02,Weather View 32 v70,2015-07-29 16:02:00,
2015-07-29 12:07:00,87.3,78.4,29.99,SW,219,0.0,4.0,75,0.00,,,0.02,Weather View 32 v70,2015-07-29 16:07:00,
2015-07-29 12:12:00,87.5,78.1,29.99,SW,221,0.0,4.0,74,0.00,,,0.02,Weather View 32 v70,2015-07-29 16:12:00,
2015-07-29 12:17:00,87.7,78.3,29.99,WSW,247,1.0,6.0,74,0.00,,,0.02,Weather View 32 v70,2015-07-29 16:17:00,
2015-07-29 12:22:00,87.5,77.7,29.99,SW,216,0.0,6.0,73,0.00,,,0.02,Weather View 32 v70,2015-07-29 16:22:00,
2015-07-29 12:27:00,87.7,77.9,29.99,SW,217,0.0,6.0,73,0.00,,,0.02,Weather View 32 v70,2015-07-29 16:27:00,
2015-07-29 12:30:00,87.9,78.1,29.99,SW,215,0.0,6.0,73,0.00,,,0.02,Weather View 32 v70,2015-07-29 16:30:00,
2015-07-29 12:33:00,88.0,77.8,29.99,SW,216,0.0,6.0,72,0.00,,,0.02,Weather View 32 v70,2015-07-29 16:33:00,
2015-07-29 12:38:00,88.0,77.8,29.99,SSW,213,0.0,6.0,72,0.00,,,0.02,Weather View 32 v70,2015-07-29 16:38:00,
2015-07-29 12:43:00,87.9,77.7,29.99,SSW,205,4.0,7.0,72,0.00,,,0.02,Weather View 32 v70,2015-07-29 16:43:00,
2015-07-29 12:48:00,87.7,77.9,29.98,SW,225,3.0,7.0,73,0.00,,,0.02,Weather View 32 v70,2015-07-29 16:48:00,
2015-07-29 12:53:00,87.4,77.2,29.98,SSW,208,0.0,7.0,72,0.00,,,0.02,Weather View 32 v70,2015-07-29 16:53:00,
2015-07-29 12:58:00,87.5,77.3,29.98,SSW,206,0.0,7.0,72,0.00,,,0.02,Weather View 32 v70,2015-07-29 16:58:00,
2015-07-29 13:03:00,87.8,78.4,29.98,SSW,211,0.0,7.0,74,0.00,,,0.02,Weather View 32 v70,2015-07-29 17:03:00,
2015-07-29 13:08:00,88.0,77.8,29.98,SSW,211,7.0,7.0,72,0.00,,,0.02,Weather View 32 v70,2015-07-29 17:08:00,
2015-07-29 13:13:00,88.2,78.0,29.98,SW,228,0.0,8.0,72,0.00,,,0.02,Weather View 32 v70,2015-07-29 17:13:00,
2015-07-29 13:18:00,88.7,78.5,29.98,SSW,213,0.0,8.0,72,0.00,,,0.02,Weather View 32 v70,2015-07-29 17:18:00,
2015-07-29 13:23:00,89.0,78.3,29.98,SSW,210,0.0,8.0,71,0.00,,,0.02,Weather View 32 v70,2015-07-29 17:23:00,
2015-07-29 13:28:00,89.7,79.0,29.99,SW,214,5.0,8.0,71,0.00,,,0.02,Weather View 32 v70,2015-07-29 17:28:00,
2015-07-29 13:30:00,89.8,78.7,29.99,SSW,207,0.0,8.0,70,0.00,,,0.02,Weather View 32 v70,2015-07-29 17:30:00,
2015-07-29 13:33:00,89.6,78.9,29.99,SSW,212,0.0,8.0,71,0.00,,,0.02,Weather View 32 v70,2015-07-29 17:33:00,
2015-07-29 13:38:00,89.8,79.1,29.99,SW,215,0.0,8.0,71,0.00,,,0.02,Weather View 32 v70,2015-07-29 17:38:00,
2015-07-29 13:43:00,89.7,78.6,29.99,SSW,200,0.0,8.0,70,0.00,,,0.02,Weather View 32 v70,2015-07-29 17:43:00,
2015-07-29 13:53:00,89.8,79.5,29.99,SSW,207,0.0,8.0,72,0.00,,,0.02,Weather View 32 v70,2015-07-29 17:53:00,
2015-07-29 13:58:00,90.1,78.9,29.99,SSW,199,0.0,8.0,70,0.00,,,0.02,Weather View 32 v70,2015-07-29 17:58:00,
2015-07-29 14:03:00,90.1,78.5,29.99,SSW,207,0.0,8.0,69,0.00,,,0.02,Weather View 32 v70,2015-07-29 18:03:00,
2015-07-29 14:08:00,89.4,77.8,29.99,SSW,201,1.0,8.0,69,0.00,,,0.02,Weather View 32 v70,2015-07-29 18:08:00,
2015-07-29 14:13:00,88.4,77.3,29.98,SW,215,0.0,8.0,70,0.00,,,0.02,Weather View 32 v70,2015-07-29 18:13:00,
2015-07-29 14:18:00,87.5,77.3,29.98,WSW,239,0.0,8.0,72,0.00,,,0.02,Weather View 32 v70,2015-07-29 18:18:00,
2015-07-29 14:23:00,87.3,77.1,29.98,South,184,0.0,8.0,72,0.00,,,0.02,Weather View 32 v70,2015-07-29 18:23:00,
2015-07-29 14:28:00,87.7,77.1,29.98,SSW,199,0.0,8.0,71,0.00,,,0.02,Weather View 32 v70,2015-07-29 18:28:00,
2015-07-29 14:30:00,87.6,76.6,29.98,WSW,246,0.0,8.0,70,0.00,,,0.02,Weather View 32 v70,2015-07-29 18:30:00,
2015-07-29 14:38:00,87.0,76.8,29.98,SSW,194,0.0,8.0,72,0.00,,,0.02,Weather View 32 v70,2015-07-29 18:38:00,
2015-07-29 14:43:00,86.9,77.2,29.98,SSW,211,0.0,8.0,73,0.00,,,0.02,Weather View 32 v70,2015-07-29 18:43:00,
2015-07-29 14:48:00,87.8,77.6,29.99,SSW,198,0.0,8.0,72,0.00,,,0.02,Weather View 32 v70,2015-07-29 18:48:00,
2015-07-29 14:53:00,87.9,77.7,29.98,SSW,209,0.0,8.0,72,0.00,,,0.02,Weather View 32 v70,2015-07-29 18:53:00,
2015-07-29 14:58:00,87.7,77.5,29.98,SSW,213,5.0,9.0,72,0.00,,,0.02,Weather View 32 v70,2015-07-29 18:58:00,
2015-07-29 15:04:00,87.0,77.7,29.98,SW,219,0.0,9.0,74,0.00,,,0.02,Weather View 32 v70,2015-07-29 19:04:00,
2015-07-29 15:09:00,86.7,77.4,29.98,SW,229,2.0,9.0,74,0.00,,,0.02,Weather View 32 v70,2015-07-29 19:09:00,
2015-07-29 15:14:00,86.0,77.5,29.98,WSW,252,0.0,11.0,76,0.00,,,0.02,Weather View 32 v70,2015-07-29 19:14:00,
2015-07-29 15:24:00,85.3,76.8,29.98,WSW,249,8.0,11.0,76,0.00,,,0.02,Weather View 32 v70,2015-07-29 19:24:00,
2015-07-29 15:30:00,85.8,77.3,29.97,WSW,244,2.0,11.0,76,0.00,,,0.02,Weather View 32 v70,2015-07-29 19:30:00,
2015-07-29 15:34:00,85.9,76.6,29.96,WSW,245,2.0,11.0,74,0.00,,,0.02,Weather View 32 v70,2015-07-29 19:34:00,
2015-07-29 15:39:00,86.0,77.1,29.96,WSW,256,3.0,11.0,75,0.00,,,0.02,Weather View 32 v70,2015-07-29 19:39:00,
2015-07-29 15:44:00,85.8,77.3,29.97,WSW,245,0.0,11.0,76,0.00,,,0.02,Weather View 32 v70,2015-07-29 19:44:00,
2015-07-29 15:49:00,85.6,77.1,29.97,WSW,238,0.0,11.0,76,0.00,,,0.02,Weather View 32 v70,2015-07-29 19:49:00,
2015-07-29 15:54:00,85.3,76.4,29.97,WNW,285,2.0,11.0,75,0.00,,,0.02,Weather View 32 v70,2015-07-29 19:54:00,
2015-07-29 15:59:00,85.2,75.9,29.95,WSW,257,0.0,11.0,74,0.00,,,0.02,Weather View 32 v70,2015-07-29 19:59:00,
2015-07-29 16:04:00,85.3,76.0,29.95,SW,230,3.0,11.0,74,0.00,,,0.02,Weather View 32 v70,2015-07-29 20:04:00,
2015-07-29 16:09:00,85.0,76.1,29.95,WSW,252,0.0,11.0,75,0.00,,,0.02,Weather View 32 v70,2015-07-29 20:09:00,
2015-07-29 16:14:00,84.7,76.3,29.94,WSW,249,2.0,11.0,76,0.00,,,0.02,Weather View 32 v70,2015-07-29 20:14:00,
2015-07-29 16:19:00,84.4,77.1,29.94,WSW,254,0.0,11.0,79,0.00,,,0.02,Weather View 32 v70,2015-07-29 20:19:00,
2015-07-29 16:24:00,83.8,76.6,29.95,SW,229,4.0,11.0,79,0.00,,,0.02,Weather View 32 v70,2015-07-29 20:24:00,
2015-07-29 16:29:00,83.3,76.5,29.96,West,273,6.0,11.0,80,0.00,,,0.02,Weather View 32 v70,2015-07-29 20:29:00,
2015-07-29 16:34:00,83.0,76.5,29.95,WSW,256,0.0,11.0,81,0.00,,,0.02,Weather View 32 v70,2015-07-29 20:34:00,
2015-07-29 16:39:00,82.7,76.6,29.96,WSW,252,7.0,11.0,82,0.00,,,0.02,Weather View 32 v70,2015-07-29 20:39:00,
2015-07-29 16:44:00,82.5,76.8,29.96,SW,234,8.0,11.0,83,0.00,,,0.02,Weather View 32 v70,2015-07-29 20:44:00,
2015-07-29 16:49:00,82.4,76.7,29.96,WSW,254,3.0,11.0,83,0.00,,,0.02,Weather View 32 v70,2015-07-29 20:49:00,
2015-07-29 16:54:00,82.3,76.6,29.95,WSW,238,2.0,11.0,83,0.00,,,0.02,Weather View 32 v70,2015-07-29 20:54:00,
2015-07-29 16:59:00,82.3,76.6,29.95,WNW,283,0.0,11.0,83,0.00,,,0.02,Weather View 32 v70,2015-07-29 20:59:00,
2015-07-29 17:04:00,82.3,76.6,29.95,West,275,0.0,11.0,83,0.00,,,0.02,Weather View 32 v70,2015-07-29 21:04:00,
2015-07-29 17:09:00,82.3,76.6,29.94,WSW,252,0.0,11.0,83,0.00,,,0.02,Weather View 32 v70,2015-07-29 21:09:00,
2015-07-29 17:14:00,82.3,76.6,29.94,WSW,257,0.0,11.0,83,0.00,,,0.02,Weather View 32 v70,2015-07-29 21:14:00,
2015-07-29 17:19:00,82.3,76.6,29.94,WSW,240,0.0,11.0,83,0.00,,,0.02,Weather View 32 v70,2015-07-29 21:19:00,
2015-07-29 17:24:00,82.1,76.4,29.93,WSW,248,0.0,11.0,83,0.00,,,0.02,Weather View 32 v70,2015-07-29 21:24:00,
2015-07-29 17:29:00,82.2,76.5,29.93,WSW,242,5.0,11.0,83,0.00,,,0.02,Weather View 32 v70,2015-07-29 21:29:00,
2015-07-29 17:30:00,82.2,76.5,29.93,WSW,242,1.0,11.0,83,0.00,,,0.02,Weather View 32 v70,2015-07-29 21:30:00,
2015-07-29 17:34:00,82.3,76.6,29.93,WSW,240,0.0,11.0,83,0.00,,,0.02,Weather View 32 v70,2015-07-29 21:34:00,
2015-07-29 17:40:00,82.4,76.3,29.93,WSW,245,2.0,11.0,82,0.00,,,0.02,Weather View 32 v70,2015-07-29 21:40:00,
2015-07-29 17:45:00,82.6,76.5,29.93,WSW,258,1.0,9.0,82,0.00,,,0.02,Weather View 32 v70,2015-07-29 21:45:00,
2015-07-29 17:50:00,82.7,76.2,29.93,WSW,243,2.0,9.0,81,0.00,,,0.02,Weather View 32 v70,2015-07-29 21:50:00,
2015-07-29 17:55:00,82.8,76.7,29.94,WSW,258,0.0,8.0,82,0.00,,,0.02,Weather View 32 v70,2015-07-29 21:55:00,
2015-07-29 18:00:00,82.9,76.8,29.94,WNW,289,3.0,8.0,82,0.00,,,0.02,Weather View 32 v70,2015-07-29 22:00:00,
2015-07-29 18:05:00,83.0,76.9,29.94,WNW,287,2.0,10.0,82,0.00,,,0.02,Weather View 32 v70,2015-07-29 22:05:00,
2015-07-29 18:10:00,83.0,76.9,29.94,West,269,2.0,10.0,82,0.00,,,0.02,Weather View 32 v70,2015-07-29 22:10:00,
2015-07-29 18:15:00,82.9,76.4,29.94,West,277,5.0,10.0,81,0.00,,,0.02,Weather View 32 v70,2015-07-29 22:15:00,
2015-07-29 18:20:00,82.8,76.7,29.94,West,270,1.0,10.0,82,0.00,,,0.02,Weather View 32 v70,2015-07-29 22:20:00,
2015-07-29 18:25:00,82.8,76.7,29.94,WSW,240,0.0,10.0,82,0.00,,,0.02,Weather View 32 v70,2015-07-29 22:25:00,
2015-07-29 18:30:00,82.8,76.7,29.93,West,271,4.0,10.0,82,0.00,,,0.02,Weather View 32 v70,2015-07-29 22:30:00,
2015-07-29 18:35:00,82.8,76.7,29.93,West,267,0.0,10.0,82,0.00,,,0.02,Weather View 32 v70,2015-07-29 22:35:00,
2015-07-29 18:40:00,82.7,76.6,29.93,West,269,0.0,10.0,82,0.00,,,0.02,Weather View 32 v70,2015-07-29 22:40:00,
2015-07-29 18:45:00,82.7,76.6,29.93,WNW,288,6.0,10.0,82,0.00,,,0.02,Weather View 32 v70,2015-07-29 22:45:00,
2015-07-29 18:50:00,82.8,76.7,29.93,WSW,254,7.0,10.0,82,0.00,,,0.02,Weather View 32 v70,2015-07-29 22:50:00,
2015-07-29 18:55:00,82.7,76.6,29.93,WNW,288,0.0,10.0,82,0.00,,,0.02,Weather View 32 v70,2015-07-29 22:55:00,
2015-07-29 19:00:00,82.7,76.6,29.93,West,263,0.0,10.0,82,0.00,,,0.02,Weather View 32 v70,2015-07-29 23:00:00,
2015-07-29 19:05:00,82.6,76.9,29.93,WNW,289,2.0,9.0,83,0.00,,,0.02,Weather View 32 v70,2015-07-29 23:05:00,
2015-07-29 19:10:00,82.6,76.9,29.93,WSW,239,0.0,9.0,83,0.00,,,0.02,Weather View 32 v70,2015-07-29 23:10:00,
2015-07-29 19:15:00,82.6,76.9,29.94,WSW,240,0.0,9.0,83,0.00,,,0.02,Weather View 32 v70,2015-07-29 23:15:00,
2015-07-29 19:20:00,82.6,76.9,29.94,WNW,286,2.0,9.0,83,0.00,,,0.02,Weather View 32 v70,2015-07-29 23:20:00,
2015-07-29 19:25:00,82.6,77.2,29.94,WSW,253,6.0,9.0,84,0.00,,,0.02,Weather View 32 v70,2015-07-29 23:25:00,
2015-07-29 19:30:00,82.6,77.2,29.94,West,279,0.0,9.0,84,0.00,,,0.02,Weather View 32 v70,2015-07-29 23:30:00,
2015-07-29 19:35:00,82.5,77.2,29.94,West,279,0.0,9.0,84,0.00,,,0.02,Weather View 32 v70,2015-07-29 23:35:00,
2015-07-29 19:40:00,82.4,77.1,29.94,West,279,3.0,9.0,84,0.00,,,0.02,Weather View 32 v70,2015-07-29 23:40:00,
2015-07-29 19:45:00,82.4,77.1,29.94,West,275,0.0,9.0,84,0.00,,,0.02,Weather View 32 v70,2015-07-29 23:45:00,
2015-07-29 19:50:00,82.3,77.0,29.94,West,275,0.0,9.0,84,0.00,,,0.02,Weather View 32 v70,2015-07-29 23:50:00,
2015-07-29 19:55:00,82.3,77.0,29.95,West,275,0.0,9.0,84,0.00,,,0.02,Weather View 32 v70,2015-07-29 23:55:00,
2015-07-29 20:00:00,82.3,77.0,29.95,West,276,0.0,9.0,84,0.00,,,0.02,Weather View 32 v70,2015-07-30 00:00:00,
2015-07-29 20:05:00,82.2,76.9,29.95,West,276,0.0,9.0,84,0.00,,,0.02,Weather View 32 v70,2015-07-30 00:05:00,
2015-07-29 20:10:00,82.1,76.8,29.95,West,273,1.0,9.0,84,0.00,,,0.02,Weather View 32 v70,2015-07-30 00:10:00,
2015-07-29 20:15:00,82.0,76.7,29.95,West,273,0.0,9.0,84,0.00,,,0.02,Weather View 32 v70,2015-07-30 00:15:00,
2015-07-29 20:20:00,82.0,76.3,29.94,West,271,0.0,9.0,83,0.00,,,0.02,Weather View 32 v70,2015-07-30 00:20:00,
2015-07-29 20:25:00,82.0,76.3,29.95,West,267,0.0,7.0,83,0.00,,,0.02,Weather View 32 v70,2015-07-30 00:25:00,
2015-07-29 20:30:00,82.0,76.3,29.95,West,267,0.0,6.0,83,0.00,,,0.02,Weather View 32 v70,2015-07-30 00:30:00,
2015-07-29 20:41:00,82.0,76.3,29.95,West,265,0.0,5.0,83,0.00,,,0.02,Weather View 32 v70,2015-07-30 00:41:00,
2015-07-29 20:46:00,82.0,76.7,29.95,West,265,0.0,5.0,84,0.00,,,0.02,Weather View 32 v70,2015-07-30 00:46:00,